createdAt,value
2018-04-22T00:02:01.020Z,13.80
2018-04-22T00:04:28.640Z,13.80
2018-04-22T00:06:56.232Z,13.80
2018-04-22T00:09:23.816Z,13.70
2018-04-22T00:11:51.428Z,13.70
2018-04-22T00:14:19.091Z,13.70
2018-04-22T00:16:46.707Z,13.60
2018-04-22T00:19:14.304Z,13.60
2018-04-22T00:21:41.923Z,13.60
2018-04-22T00:24:09.517Z,13.50
2018-04-22T00:26:37.880Z,13.50
2018-04-22T00:29:06.266Z,13.50
2018-04-22T00:31:34.653Z,13.50
2018-04-22T00:34:03.038Z,13.50
2018-04-22T00:36:30.628Z,13.50
2018-04-22T00:38:58.258Z,13.50
2018-04-22T00:41:25.852Z,13.50
2018-04-22T00:43:53.436Z,13.40
2018-04-22T00:46:21.043Z,13.40
2018-04-22T00:48:49.030Z,13.40
2018-04-22T00:51:16.654Z,13.40
2018-04-22T00:56:48.443Z,13.40
2018-04-22T00:59:16.791Z,13.30
2018-04-22T01:01:44.384Z,13.30
2018-04-22T01:04:12.759Z,13.20
2018-04-22T01:06:41.121Z,13.20
2018-04-22T01:09:08.725Z,13.20
2018-04-22T01:11:36.320Z,13.10
2018-04-22T01:14:03.939Z,13.10
2018-04-22T01:16:31.527Z,13.10
2018-04-22T01:18:59.311Z,13.10
2018-04-22T01:21:26.923Z,13.00
2018-04-22T01:23:54.520Z,13.00
2018-04-22T01:26:22.136Z,13.00
2018-04-22T01:28:50.487Z,12.80
2018-04-22T01:31:18.116Z,12.80
2018-04-22T01:33:45.706Z,12.80
2018-04-22T01:36:13.315Z,12.80
2018-04-22T01:38:40.926Z,12.80
2018-04-22T01:41:08.523Z,12.70
2018-04-22T01:43:36.913Z,12.70
2018-04-22T01:46:04.530Z,12.60
2018-04-22T01:48:32.153Z,12.60
2018-04-22T01:51:00.015Z,12.60
2018-04-22T01:53:27.636Z,12.50
2018-04-22T01:55:55.228Z,12.50
2018-04-22T01:58:22.815Z,12.50
2018-04-22T02:00:50.420Z,12.50
2018-04-22T02:03:18.780Z,12.50
2018-04-22T02:05:46.413Z,12.40
2018-04-22T02:08:14.000Z,12.50
2018-04-22T02:10:41.624Z,12.40
2018-04-22T02:13:09.222Z,12.40
2018-04-22T02:15:36.853Z,12.40
2018-04-22T02:18:04.456Z,12.40
2018-04-22T02:20:32.048Z,12.40
2018-04-22T02:22:59.669Z,12.40
2018-04-22T02:25:27.283Z,12.30
2018-04-22T02:27:54.908Z,12.30
2018-04-22T02:30:23.268Z,12.20
2018-04-22T02:32:50.912Z,12.20
2018-04-22T02:35:18.508Z,12.20
2018-04-22T02:37:46.905Z,12.10
2018-04-22T02:40:15.264Z,12.20
2018-04-22T02:42:42.877Z,12.10
2018-04-22T02:45:10.505Z,12.10
2018-04-22T02:47:38.856Z,12.00
2018-04-22T02:50:06.483Z,12.00
2018-04-22T02:52:34.068Z,12.00
2018-04-22T02:55:01.672Z,11.90
2018-04-22T02:57:29.285Z,11.90
2018-04-22T02:59:56.915Z,11.90
2018-04-22T03:02:24.507Z,11.80
2018-04-22T03:04:52.092Z,11.80
2018-04-22T03:07:19.720Z,11.80
2018-04-22T03:09:47.313Z,11.80
2018-04-22T03:12:14.940Z,11.80
2018-04-22T03:14:42.535Z,11.80
2018-04-22T03:17:10.920Z,11.70
2018-04-22T03:19:39.276Z,11.70
2018-04-22T03:22:06.863Z,11.70
2018-04-22T03:24:35.244Z,11.60
2018-04-22T03:27:03.606Z,11.60
2018-04-22T03:29:31.225Z,11.60
2018-04-22T03:31:58.816Z,11.60
2018-04-22T03:34:26.439Z,11.60
2018-04-22T03:36:54.023Z,11.60
2018-04-22T03:39:21.668Z,11.60
2018-04-22T03:41:49.290Z,11.60
2018-04-22T03:44:17.653Z,11.50
2018-04-22T03:46:45.271Z,11.50
2018-04-22T03:49:12.892Z,11.50
2018-04-22T03:51:41.284Z,11.50
2018-04-22T03:54:08.880Z,11.50
2018-04-22T03:56:36.515Z,11.50
2018-04-22T03:59:04.120Z,11.40
2018-04-22T04:01:31.741Z,11.40
2018-04-22T04:03:59.349Z,11.40
2018-04-22T04:06:26.946Z,11.30
2018-04-22T04:08:55.323Z,11.30
2018-04-22T04:11:22.925Z,11.30
2018-04-22T04:13:50.871Z,11.30
2018-04-22T04:16:18.470Z,11.20
2018-04-22T04:18:58.646Z,11.20
2018-04-22T04:21:39.073Z,11.20
2018-04-22T04:27:41.190Z,11.10
2018-04-22T04:30:09.106Z,11.10
2018-04-22T04:32:36.709Z,11.10
2018-04-22T04:35:04.455Z,11.10
2018-04-22T04:37:32.068Z,11.30
2018-04-22T04:40:00.434Z,11.50
2018-04-22T04:42:28.054Z,11.50
2018-04-22T04:44:55.645Z,11.70
2018-04-22T04:47:27.979Z,11.90
2018-04-22T04:49:55.572Z,12.10
2018-04-22T04:52:23.193Z,12.20
2018-04-22T04:54:50.787Z,12.30
2018-04-22T04:57:18.418Z,12.40
2018-04-22T04:59:46.016Z,12.50
2018-04-22T05:02:13.634Z,12.50
2018-04-22T05:04:41.248Z,12.60
2018-04-22T05:07:08.893Z,12.60
2018-04-22T05:09:41.000Z,12.70
2018-04-22T05:12:09.355Z,12.80
2018-04-22T05:14:37.330Z,12.80
2018-04-22T05:17:04.953Z,12.90
2018-04-22T05:19:32.680Z,12.90
2018-04-22T05:22:00.306Z,13.00
2018-04-22T05:24:28.059Z,13.00
2018-04-22T05:26:55.667Z,13.10
2018-04-22T05:29:23.567Z,13.20
2018-04-22T05:31:51.210Z,13.20
2018-04-22T05:34:19.176Z,13.30
2018-04-22T05:36:46.784Z,13.40
2018-04-22T05:39:14.420Z,13.40
2018-04-22T05:41:42.061Z,13.40
2018-04-22T05:44:10.399Z,13.60
2018-04-22T05:46:38.017Z,13.50
2018-04-22T05:49:05.608Z,13.60
2018-04-22T05:51:33.220Z,13.70
2018-04-22T05:54:00.817Z,13.80
2018-04-22T05:56:28.453Z,13.90
2018-04-22T05:58:56.052Z,14.00
2018-04-22T06:01:23.779Z,14.00
2018-04-22T06:03:51.415Z,14.10
2018-04-22T06:06:20.017Z,14.30
2018-04-22T06:08:47.627Z,14.30
2018-04-22T06:11:15.215Z,14.40
2018-04-22T06:13:43.619Z,14.60
2018-04-22T06:16:11.422Z,14.50
2018-04-22T06:18:39.028Z,14.70
2018-04-22T06:21:06.688Z,14.80
2018-04-22T06:23:35.056Z,15.00
2018-04-22T06:26:03.438Z,15.20
2018-04-22T06:28:37.560Z,15.30
2018-04-22T06:31:05.952Z,15.50
2018-04-22T06:33:33.843Z,15.40
2018-04-22T06:36:01.491Z,15.50
2018-04-22T06:38:29.544Z,15.70
2018-04-22T06:40:57.979Z,15.90
2018-04-22T06:43:25.612Z,15.90
2018-04-22T06:45:56.892Z,16.00
2018-04-22T06:48:24.504Z,16.10
2018-04-22T06:50:53.060Z,16.20
2018-04-22T06:53:21.664Z,16.40
2018-04-22T06:55:49.268Z,16.50
2018-04-22T06:58:16.880Z,16.60
2018-04-22T07:00:45.272Z,16.80
2018-04-22T07:03:12.856Z,16.80
2018-04-22T07:05:40.475Z,17.00
2018-04-22T07:08:08.834Z,17.10
2018-04-22T07:10:36.455Z,17.00
2018-04-22T07:13:04.050Z,17.20
2018-04-22T07:15:31.664Z,17.40
2018-04-22T07:17:59.286Z,17.40
2018-04-22T07:20:26.909Z,17.60
2018-04-22T07:22:54.511Z,17.70
2018-04-22T07:25:22.144Z,17.80
2018-04-22T07:27:49.764Z,18.00
2018-04-22T07:30:17.358Z,18.20
2018-04-22T07:32:44.976Z,18.40
2018-04-22T07:35:13.331Z,18.50
2018-04-22T07:37:40.967Z,18.50
2018-04-22T07:40:08.568Z,18.60
2018-04-22T07:42:37.000Z,18.80
2018-04-22T07:45:04.568Z,18.80
2018-04-22T07:47:32.169Z,18.90
2018-04-22T07:50:00.543Z,19.20
2018-04-22T07:52:28.912Z,19.30
2018-04-22T07:54:56.528Z,19.30
2018-04-22T07:57:24.130Z,19.30
2018-04-22T07:59:51.819Z,19.40
2018-04-22T08:02:20.197Z,19.70
2018-04-22T08:04:48.569Z,19.80
2018-04-22T08:07:16.927Z,20.00
2018-04-22T08:09:44.526Z,19.90
2018-04-22T08:12:12.151Z,20.00
2018-04-22T08:14:40.131Z,20.10
2018-04-22T08:17:07.811Z,20.10
2018-04-22T08:19:36.163Z,20.20
2018-04-22T08:22:03.775Z,20.20
2018-04-22T08:24:31.668Z,20.20
2018-04-22T08:26:59.291Z,20.20
2018-04-22T08:29:26.879Z,20.40
2018-04-22T08:31:54.467Z,20.50
2018-04-22T08:34:22.104Z,20.60
2018-04-22T08:36:49.725Z,20.80
2018-04-22T08:39:21.620Z,21.10
2018-04-22T08:41:49.220Z,21.10
2018-04-22T08:44:16.835Z,21.20
2018-04-22T08:46:44.459Z,21.40
2018-04-22T08:49:12.858Z,21.60
2018-04-22T08:51:40.999Z,21.50
2018-04-22T08:54:09.371Z,21.60
2018-04-22T08:56:37.037Z,21.60
2018-04-22T08:59:04.651Z,21.60
2018-04-22T09:01:34.220Z,21.50
2018-04-22T09:04:02.572Z,21.50
2018-04-22T09:06:30.185Z,21.50
2018-04-22T09:08:57.772Z,21.70
2018-04-22T09:11:25.395Z,21.70
2018-04-22T09:13:53.747Z,21.70
2018-04-22T09:16:21.417Z,21.80
2018-04-22T09:18:49.004Z,21.80
2018-04-22T09:21:16.599Z,22.00
2018-04-22T09:23:44.211Z,22.20
2018-04-22T09:26:15.742Z,22.40
2018-04-22T09:28:45.364Z,22.30
2018-04-22T09:31:13.731Z,22.60
2018-04-22T09:33:45.115Z,22.50
2018-04-22T09:36:15.903Z,22.60
2018-04-22T09:38:43.493Z,22.60
2018-04-22T09:41:11.893Z,22.80
2018-04-22T09:43:39.511Z,22.80
2018-04-22T09:46:09.135Z,23.00
2018-04-22T09:48:37.487Z,23.20
2018-04-22T09:51:05.110Z,23.20
2018-04-22T09:53:32.693Z,23.30
2018-04-22T09:56:00.283Z,23.40
2018-04-22T09:58:27.897Z,23.50
2018-04-22T10:01:01.235Z,23.60
2018-04-22T10:03:31.105Z,23.50
2018-04-22T10:06:01.543Z,23.70
2018-04-22T10:08:29.155Z,23.80
2018-04-22T10:10:57.547Z,23.60
2018-04-22T10:13:25.185Z,23.50
2018-04-22T10:15:52.780Z,23.60
2018-04-22T10:18:20.373Z,23.60
2018-04-22T10:20:48.000Z,23.60
2018-04-22T10:23:15.628Z,23.60
2018-04-22T10:25:43.247Z,23.80
2018-04-22T10:31:04.478Z,23.90
2018-04-22T10:33:34.020Z,24.10
2018-04-22T10:36:01.633Z,24.20
2018-04-22T10:38:31.265Z,24.20
2018-04-22T10:40:58.878Z,24.20
2018-04-22T10:43:27.260Z,24.50
2018-04-22T10:45:57.549Z,24.50
2018-04-22T10:48:25.933Z,24.50
2018-04-22T10:50:53.577Z,24.50
2018-04-22T10:53:21.218Z,24.50
2018-04-22T10:55:48.820Z,24.60
2018-04-22T10:58:16.425Z,24.60
2018-04-22T11:00:44.937Z,24.60
2018-04-22T11:03:12.547Z,24.60
2018-04-22T11:05:40.936Z,24.80
2018-04-22T11:08:09.331Z,24.80
2018-04-22T11:10:36.967Z,24.80
2018-04-22T11:13:05.323Z,24.90
2018-04-22T11:15:32.911Z,24.90
2018-04-22T11:18:01.297Z,25.00
2018-04-22T11:20:29.671Z,25.30
2018-04-22T11:22:58.097Z,25.30
2018-04-22T11:25:25.740Z,25.30
2018-04-22T11:27:53.329Z,25.30
2018-04-22T11:30:20.937Z,25.40
2018-04-22T11:32:48.524Z,25.50
2018-04-22T11:35:16.151Z,25.50
2018-04-22T11:37:44.551Z,25.80
2018-04-22T11:40:12.140Z,25.70
2018-04-22T11:42:39.756Z,25.90
2018-04-22T11:45:08.108Z,26.10
2018-04-22T11:47:35.745Z,26.00
2018-04-22T11:50:04.143Z,26.10
2018-04-22T11:52:31.755Z,26.10
2018-04-22T11:55:00.466Z,26.20
2018-04-22T11:57:28.088Z,26.20
2018-04-22T11:59:57.470Z,26.20
2018-04-22T12:02:25.885Z,26.20
2018-04-22T12:04:53.496Z,26.20
2018-04-22T12:07:21.088Z,26.10
2018-04-22T12:09:49.708Z,26.10
2018-04-22T12:12:17.298Z,26.10
2018-04-22T12:14:48.178Z,26.20
2018-04-22T12:17:16.521Z,26.50
2018-04-22T12:19:44.164Z,26.50
2018-04-22T12:22:11.747Z,26.60
2018-04-22T12:24:42.688Z,26.60
2018-04-22T12:27:10.327Z,26.70
2018-04-22T12:29:37.971Z,26.60
2018-04-22T12:32:05.586Z,26.70
2018-04-22T12:34:33.935Z,26.80
2018-04-22T12:37:01.537Z,26.80
2018-04-22T12:39:29.882Z,27.10
2018-04-22T12:42:06.056Z,27.10
2018-04-22T12:44:33.635Z,27.10
2018-04-22T12:47:01.987Z,27.30
2018-04-22T12:49:29.647Z,27.30
2018-04-22T12:51:58.807Z,27.50
2018-04-22T12:54:26.415Z,27.60
2018-04-22T12:56:54.664Z,27.60
2018-04-22T12:59:22.317Z,27.80
2018-04-22T13:01:49.912Z,27.80
2018-04-22T13:04:18.305Z,27.80
2018-04-22T13:06:46.691Z,27.90
2018-04-22T13:09:15.049Z,27.80
2018-04-22T13:11:48.428Z,27.80
2018-04-22T13:14:16.019Z,27.80
2018-04-22T13:16:44.388Z,27.90
2018-04-22T13:19:12.772Z,28.00
2018-04-22T13:21:41.155Z,28.00
2018-04-22T13:24:09.514Z,27.90
2018-04-22T13:26:39.116Z,27.90
2018-04-22T13:29:06.740Z,27.80
2018-04-22T13:31:34.392Z,27.90
2018-04-22T13:34:02.737Z,28.10
2018-04-22T13:36:30.327Z,28.10
2018-04-22T13:38:58.910Z,28.00
2018-04-22T13:41:26.497Z,27.70
2018-04-22T13:43:54.121Z,27.70
2018-04-22T13:46:22.507Z,27.50
2018-04-22T13:48:50.856Z,27.50
2018-04-22T13:51:18.467Z,27.60
2018-04-22T13:53:46.108Z,27.60
2018-04-22T13:56:13.723Z,27.60
2018-04-22T13:58:41.317Z,27.30
2018-04-22T14:01:08.932Z,27.20
2018-04-22T14:03:36.523Z,27.20
2018-04-22T14:06:04.122Z,27.30
2018-04-22T14:08:31.736Z,27.50
2018-04-22T14:10:59.340Z,27.70
2018-04-22T14:13:26.951Z,27.60
2018-04-22T14:15:54.781Z,27.60
2018-04-22T14:18:22.407Z,27.70
2018-04-22T14:20:50.760Z,27.90
2018-04-22T14:23:18.348Z,27.90
2018-04-22T14:25:46.731Z,28.30
2018-04-22T14:28:15.085Z,28.40
2018-04-22T14:30:42.693Z,28.40
2018-04-22T14:33:10.295Z,28.10
2018-04-22T14:35:37.919Z,28.00
2018-04-22T14:38:05.554Z,28.00
2018-04-22T14:40:33.935Z,28.20
2018-04-22T14:43:02.292Z,28.30
2018-04-22T14:45:41.880Z,28.30
2018-04-22T14:48:09.468Z,28.20
2018-04-22T14:50:37.102Z,28.00
2018-04-22T14:53:04.708Z,27.80
2018-04-22T14:55:32.305Z,27.70
2018-04-22T14:58:00.689Z,27.40
2018-04-22T15:00:28.278Z,27.30
2018-04-22T15:02:55.886Z,27.40
2018-04-22T15:05:24.248Z,27.40
2018-04-22T15:07:51.867Z,27.40
2018-04-22T15:10:19.465Z,27.50
2018-04-22T15:12:47.061Z,27.60
2018-04-22T15:15:15.440Z,27.70
2018-04-22T15:17:43.788Z,27.80
2018-04-22T15:20:11.393Z,27.80
2018-04-22T15:22:39.000Z,27.90
2018-04-22T15:25:06.614Z,27.90
2018-04-22T15:27:34.228Z,28.00
2018-04-22T15:30:06.621Z,28.00
2018-04-22T15:32:34.211Z,28.10
2018-04-22T15:35:02.740Z,28.00
2018-04-22T15:37:32.374Z,27.90
2018-04-22T15:39:59.961Z,27.60
2018-04-22T15:42:27.581Z,27.50
2018-04-22T15:44:57.908Z,27.10
2018-04-22T15:47:27.520Z,27.10
2018-04-22T15:49:57.116Z,27.10
2018-04-22T15:52:25.720Z,27.20
2018-04-22T15:54:53.300Z,27.10
2018-04-22T15:57:22.671Z,26.70
2018-04-22T15:59:50.341Z,26.70
2018-04-22T16:02:17.905Z,26.50
2018-04-22T16:04:45.507Z,26.30
2018-04-22T16:07:13.137Z,26.20
2018-04-22T16:09:41.507Z,26.10
2018-04-22T16:12:10.888Z,26.20
2018-04-22T16:14:38.585Z,26.20
2018-04-22T16:17:06.119Z,26.40
2018-04-22T16:19:33.709Z,26.80
2018-04-22T16:22:02.084Z,27.20
2018-04-22T16:24:30.455Z,27.10
2018-04-22T16:26:58.844Z,27.10
2018-04-22T16:29:27.207Z,27.10
2018-04-22T16:31:54.821Z,27.10
2018-04-22T16:34:22.403Z,27.00
2018-04-22T16:36:50.018Z,26.90
2018-04-22T16:39:17.599Z,26.70
2018-04-22T16:41:45.188Z,26.50
2018-04-22T16:44:12.840Z,26.30
2018-04-22T16:46:40.437Z,26.10
2018-04-22T16:49:08.839Z,25.70
2018-04-22T16:51:36.469Z,25.70
2018-04-22T16:54:11.401Z,25.60
2018-04-22T16:56:39.056Z,25.40
2018-04-22T16:59:06.686Z,25.20
2018-04-22T17:01:34.275Z,25.00
2018-04-22T17:04:01.874Z,24.90
2018-04-22T17:06:29.513Z,24.80
2018-04-22T17:08:57.095Z,24.60
2018-04-22T17:11:25.479Z,24.30
2018-04-22T17:13:53.508Z,24.30
2018-04-22T17:16:21.152Z,24.20
2018-04-22T17:18:48.784Z,24.10
2018-04-22T17:21:16.392Z,23.90
2018-04-22T17:23:45.015Z,23.80
2018-04-22T17:26:13.447Z,23.40
2018-04-22T17:28:41.065Z,23.40
2018-04-22T17:31:08.667Z,23.30
2018-04-22T17:33:37.266Z,23.20
2018-04-22T17:36:04.881Z,23.10
2018-04-22T17:38:32.484Z,23.10
2018-04-22T17:41:00.128Z,23.00
2018-04-22T17:43:27.720Z,22.90
2018-04-22T17:45:55.341Z,22.90
2018-04-22T17:48:22.951Z,22.80
2018-04-22T17:50:56.068Z,22.60
2018-04-22T17:53:23.664Z,22.60
2018-04-22T17:55:51.265Z,22.60
2018-04-22T17:58:19.644Z,22.50
2018-04-22T18:00:48.007Z,22.40
2018-04-22T18:03:15.615Z,22.40
2018-04-22T18:05:43.240Z,22.50
2018-04-22T18:08:10.871Z,22.60
2018-04-22T18:10:38.458Z,22.70
2018-04-22T18:13:06.079Z,22.70
2018-04-22T18:15:33.659Z,22.70
2018-04-22T18:18:01.552Z,22.60
2018-04-22T18:20:29.945Z,22.50
2018-04-22T18:22:58.302Z,22.50
2018-04-22T18:25:25.903Z,22.50
2018-04-22T18:27:54.128Z,22.40
2018-04-22T18:30:21.886Z,22.40
2018-04-22T18:32:49.404Z,22.20
2018-04-22T18:35:17.035Z,22.20
2018-04-22T18:37:45.408Z,22.00
2018-04-22T18:40:13.973Z,21.90
2018-04-22T18:42:41.588Z,21.90
2018-04-22T18:45:09.187Z,21.80
2018-04-22T18:47:36.792Z,21.70
2018-04-22T18:50:07.186Z,21.60
2018-04-22T18:52:34.800Z,21.60
2018-04-22T18:55:02.565Z,21.50
2018-04-22T18:57:30.233Z,21.40
2018-04-22T18:59:57.935Z,21.30
2018-04-22T19:02:29.970Z,21.20
2018-04-22T19:04:57.568Z,21.10
2018-04-22T19:07:25.168Z,20.90
2018-04-22T19:09:52.791Z,20.70
2018-04-22T19:12:20.378Z,20.60
2018-04-22T19:14:48.763Z,20.20
2018-04-22T19:17:16.364Z,20.20
2018-04-22T19:19:46.014Z,20.10
2018-04-22T19:22:14.036Z,20.00
2018-04-22T19:24:42.660Z,19.90
2018-04-22T19:27:10.251Z,19.70
2018-04-22T19:29:38.793Z,19.60
2018-04-22T19:32:06.418Z,19.60
2018-04-22T19:34:34.008Z,19.50
2018-04-22T19:37:01.605Z,19.30
2018-04-22T19:39:30.108Z,19.20
2018-04-22T19:41:57.746Z,19.20
2018-04-22T19:44:30.800Z,19.20
2018-04-22T19:46:58.442Z,19.10
2018-04-22T19:49:27.045Z,19.10
2018-04-22T19:51:54.627Z,19.00
2018-04-22T19:54:23.218Z,18.90
2018-04-22T19:56:51.567Z,18.90
2018-04-22T19:59:20.187Z,18.80
2018-04-22T20:01:48.540Z,18.70
2018-04-22T20:04:16.148Z,18.70
2018-04-22T20:06:43.732Z,18.70
2018-04-22T20:09:11.351Z,18.60
2018-04-22T20:11:40.930Z,18.60
2018-04-22T20:14:08.518Z,18.60
2018-04-22T20:16:36.919Z,18.40
2018-04-22T20:19:04.785Z,18.40
2018-04-22T20:21:32.392Z,18.40
2018-04-22T20:23:59.985Z,18.30
2018-04-22T20:26:28.368Z,18.20
2018-04-22T20:28:56.720Z,18.20
2018-04-22T20:31:28.701Z,18.20
2018-04-22T20:33:57.065Z,18.20
2018-04-22T20:36:24.655Z,18.20
2018-04-22T20:38:53.043Z,18.10
2018-04-22T20:41:21.564Z,18.10
2018-04-22T20:43:49.167Z,18.10
2018-04-22T20:46:17.532Z,18.20
2018-04-22T20:48:45.145Z,18.20
2018-04-22T20:51:12.726Z,18.30
2018-04-22T20:53:40.344Z,18.40
2018-04-22T20:56:08.683Z,18.50
2018-04-22T20:58:36.280Z,18.40
2018-04-22T21:01:04.652Z,18.40
2018-04-22T21:03:33.056Z,18.40
2018-04-22T21:06:01.397Z,18.40
2018-04-22T21:08:29.011Z,18.40
2018-04-22T21:10:56.617Z,18.30
2018-04-22T21:13:24.203Z,18.40
2018-04-22T21:15:51.853Z,18.30
2018-04-22T21:18:20.207Z,18.30
2018-04-22T21:20:48.221Z,18.30
2018-04-22T21:23:15.831Z,18.40
2018-04-22T21:25:43.411Z,18.50
2018-04-22T21:28:11.023Z,18.50
2018-04-22T21:30:38.600Z,18.60
2018-04-22T21:33:06.185Z,18.70
2018-04-22T21:35:33.797Z,18.90
2018-04-22T21:38:01.380Z,19.00
2018-04-22T21:40:29.033Z,19.00
2018-04-22T21:42:56.621Z,18.90
2018-04-22T21:45:24.267Z,18.90
2018-04-22T21:47:51.855Z,18.80
2018-04-22T21:50:19.439Z,18.80
2018-04-22T21:52:47.803Z,18.80
2018-04-22T21:55:16.152Z,18.80
2018-04-22T21:57:44.102Z,18.70
2018-04-22T22:00:11.691Z,18.70
2018-04-22T22:02:39.308Z,18.70
2018-04-22T22:05:06.904Z,18.60
2018-04-22T22:07:34.860Z,18.60
2018-04-22T22:10:02.465Z,18.50
2018-04-22T22:12:30.816Z,18.50
2018-04-22T22:14:58.459Z,18.50
2018-04-22T22:17:26.031Z,18.40
2018-04-22T22:19:53.641Z,18.40
2018-04-22T22:22:21.992Z,18.40
2018-04-22T22:24:50.551Z,18.30
2018-04-22T22:27:18.159Z,18.30
2018-04-22T22:29:46.523Z,18.30
2018-04-22T22:32:14.147Z,18.30
2018-04-22T22:34:41.747Z,18.30
2018-04-22T22:37:09.348Z,18.30
2018-04-22T22:39:37.023Z,18.30
2018-04-22T22:42:04.638Z,18.20
2018-04-22T22:44:32.990Z,18.20
2018-04-22T22:47:00.580Z,18.20
2018-04-22T22:49:28.953Z,18.20
2018-04-22T22:51:57.312Z,18.10
2018-04-22T22:54:24.919Z,18.10
2018-04-22T22:56:52.507Z,18.10
2018-04-22T22:59:20.120Z,18.10
2018-04-22T23:01:48.475Z,18.00
2018-04-22T23:04:16.066Z,18.00
2018-04-22T23:06:43.675Z,18.00
2018-04-22T23:09:17.978Z,18.00
2018-04-22T23:11:45.592Z,18.00
2018-04-22T23:14:13.949Z,17.90
2018-04-22T23:16:41.567Z,17.90
2018-04-22T23:19:09.144Z,17.90
2018-04-22T23:21:36.772Z,17.90
2018-04-22T23:24:05.136Z,17.90
2018-04-22T23:26:33.480Z,17.90
2018-04-22T23:29:01.093Z,17.90
2018-04-22T23:31:28.676Z,17.90
2018-04-22T23:33:56.288Z,17.90
2018-04-22T23:36:23.872Z,17.90
2018-04-22T23:38:52.242Z,18.00
2018-04-22T23:41:20.601Z,17.90
2018-04-22T23:43:48.192Z,17.90
2018-04-22T23:46:15.811Z,17.90
2018-04-22T23:48:43.391Z,18.00
2018-04-22T23:51:11.772Z,17.90
2018-04-22T23:53:40.119Z,17.90
2018-04-22T23:56:07.724Z,17.90
2018-04-22T23:58:36.072Z,17.90
